Time;durP1;ratioP1;P1;durP2;ratioP2;P2;SDS_P1;SDS_P2;PMS_P1;PMS_P2;Temp;Humidity;BMP_temperature;BMP_pressure;BME280_temperature;BME280_humidity;BME280_pressure;Samples;Min_cycle;Max_cycle;Signal;HPM_P1;HPM_P2
2021/09/11 00:02:07;;;;;;;9.30;8.50;;;20.30;99.90;;;;;;5054106;28;20226;-58
2021/09/11 00:04:34;;;;;;;9.82;8.80;;;20.30;99.90;;;;;;5054084;28;20209;-59
2021/09/11 00:07:00;;;;;;;10.57;9.00;;;20.30;99.90;;;;;;5054437;28;20210;-61
2021/09/11 00:09:27;;;;;;;9.60;8.13;;;20.20;99.90;;;;;;5053737;28;20205;-59
2021/09/11 00:11:54;;;;;;;10.18;9.13;;;20.20;99.90;;;;;;5054235;28;20229;-59
2021/09/11 00:14:20;;;;;;;10.60;8.98;;;20.20;99.90;;;;;;5053680;28;20239;-59
2021/09/11 00:16:48;;;;;;;10.18;8.35;;;20.20;99.90;;;;;;5053729;28;20213;-60
2021/09/11 00:19:15;;;;;;;9.70;8.80;;;20.30;99.90;;;;;;5053686;28;20580;-59
2021/09/11 00:21:42;;;;;;;11.27;8.20;;;20.30;99.90;;;;;;5053703;28;20226;-59
2021/09/11 00:24:08;;;;;;;8.95;7.85;;;20.30;99.90;;;;;;5053432;28;20210;-59
2021/09/11 00:26:35;;;;;;;9.68;8.77;;;20.30;99.90;;;;;;5053752;28;20212;-60
2021/09/11 00:29:02;;;;;;;10.23;8.25;;;20.30;99.90;;;;;;5053595;28;20206;-60
2021/09/11 00:31:28;;;;;;;10.07;9.18;;;20.30;99.90;;;;;;5053092;28;20242;-58
2021/09/11 00:33:56;;;;;;;11.98;8.52;;;20.30;99.90;;;;;;5053343;28;20276;-58
2021/09/11 00:36:23;;;;;;;12.30;9.02;;;20.20;99.90;;;;;;5053568;28;20205;-58
2021/09/11 00:38:50;;;;;;;10.65;8.68;;;20.20;99.90;;;;;;5053734;28;20206;-58
2021/09/11 00:41:16;;;;;;;12.88;9.00;;;20.20;99.90;;;;;;5053815;28;20472;-58
2021/09/11 00:43:49;;;;;;;9.82;8.82;;;20.20;99.90;;;;;;5053553;28;20198;-59
2021/09/11 00:46:17;;;;;;;9.70;8.65;;;20.30;99.90;;;;;;5053536;28;20209;-58
2021/09/11 00:48:44;;;;;;;9.68;8.68;;;20.30;99.90;;;;;;5053152;28;20205;-58
2021/09/11 00:51:13;;;;;;;12.13;8.93;;;20.20;99.90;;;;;;5052967;28;20225;-58
2021/09/11 00:53:41;;;;;;;10.13;8.80;;;20.20;99.90;;;;;;5053095;28;20229;-59
2021/09/11 00:56:08;;;;;;;9.30;8.40;;;20.20;99.90;;;;;;5053108;28;20202;-59
2021/09/11 00:58:35;;;;;;;9.50;8.60;;;20.20;99.90;;;;;;5052692;28;20264;-58
2021/09/11 01:01:03;;;;;;;9.25;8.35;;;20.30;99.90;;;;;;5052906;28;20239;-59
2021/09/11 01:03:30;;;;;;;10.75;8.82;;;20.30;99.90;;;;;;5052742;28;20205;-59
2021/09/11 01:05:57;;;;;;;9.32;8.48;;;20.20;99.90;;;;;;5052794;28;20669;-58
2021/09/11 01:08:26;;;;;;;10.75;8.88;;;20.30;99.90;;;;;;5052858;28;20254;-58
2021/09/11 01:10:52;;;;;;;9.02;8.13;;;20.30;99.90;;;;;;5052928;28;20287;-58
2021/09/11 01:13:19;;;;;;;10.82;8.95;;;20.30;99.90;;;;;;5052796;28;20225;-58
2021/09/11 01:15:46;;;;;;;10.70;8.35;;;20.30;99.90;;;;;;5052460;28;20209;-58
2021/09/11 01:18:16;;;;;;;10.52;8.77;;;20.30;99.90;;;;;;5052343;28;20681;-58
2021/09/11 01:20:43;;;;;;;73.85;65.47;;;20.40;99.90;;;;;;5052441;28;20779;-61
2021/09/11 01:23:09;;;;;;;16.90;15.13;;;20.40;99.90;;;;;;5052603;28;20205;-58
2021/09/11 01:25:37;;;;;;;9.70;8.70;;;20.30;99.90;;;;;;5052487;28;20212;-58
2021/09/11 01:28:05;;;;;;;11.25;8.00;;;20.30;99.90;;;;;;5052270;28;20623;-58
2021/09/11 01:30:31;;;;;;;12.23;8.13;;;20.20;99.90;;;;;;5052112;28;20234;-58
2021/09/11 01:32:58;;;;;;;9.43;8.45;;;20.20;99.90;;;;;;5052237;28;20222;-59
2021/09/11 01:35:25;;;;;;;9.93;8.25;;;20.20;99.90;;;;;;5052431;28;20221;-59
2021/09/11 01:37:52;;;;;;;8.90;7.93;;;20.10;99.90;;;;;;5052443;28;20618;-58
2021/09/11 01:40:18;;;;;;;9.27;8.35;;;20.10;99.90;;;;;;5052193;28;20210;-59
2021/09/11 01:42:46;;;;;;;11.77;8.82;;;20.10;99.90;;;;;;5051498;28;20202;-58
2021/09/11 01:45:15;;;;;;;9.35;8.23;;;20.00;99.90;;;;;;5052345;28;20259;-58
2021/09/11 01:47:43;;;;;;;8.75;7.90;;;20.00;99.90;;;;;;5051969;28;20210;-59
2021/09/11 01:50:12;;;;;;;9.23;8.32;;;20.00;99.90;;;;;;5052198;28;20621;-58
2021/09/11 01:52:39;;;;;;;9.35;8.55;;;20.00;99.90;;;;;;5051962;28;20256;-59
2021/09/11 01:55:08;;;;;;;11.00;8.85;;;20.00;99.90;;;;;;5051759;28;20618;-58
2021/09/11 01:57:35;;;;;;;9.45;8.55;;;20.00;99.90;;;;;;5051823;28;20570;-59
2021/09/11 02:00:04;;;;;;;10.05;8.15;;;20.00;99.90;;;;;;5051629;28;20210;-58
2021/09/11 02:02:31;;;;;;;9.10;8.20;;;19.90;99.90;;;;;;5051826;28;20296;-58
2021/09/11 02:04:57;;;;;;;9.02;8.18;;;19.90;99.90;;;;;;5051748;28;20213;-58
2021/09/11 02:07:24;;;;;;;9.55;8.55;;;19.80;99.90;;;;;;5051920;28;20420;-59
2021/09/11 02:09:51;;;;;;;9.10;8.00;;;19.90;99.90;;;;;;5051778;28;20209;-58
2021/09/11 02:12:17;;;;;;;9.88;8.18;;;19.90;99.90;;;;;;5051567;28;20237;-58
2021/09/11 02:14:44;;;;;;;11.20;8.85;;;19.90;99.90;;;;;;5051628;28;20226;-58
2021/09/11 02:17:12;;;;;;;9.40;8.18;;;19.80;99.90;;;;;;5051755;28;20259;-59
2021/09/11 02:19:39;;;;;;;9.32;8.43;;;19.80;99.90;;;;;;5051933;28;20263;-59
2021/09/11 02:22:10;;;;;;;9.30;8.40;;;19.80;99.90;;;;;;5051761;28;20225;-58
2021/09/11 02:24:37;;;;;;;12.93;8.55;;;19.90;99.90;;;;;;5051391;28;20213;-58
2021/09/11 02:27:05;;;;;;;9.52;8.63;;;19.90;99.90;;;;;;5051451;28;20240;-58
2021/09/11 02:29:32;;;;;;;9.55;8.55;;;20.00;99.90;;;;;;5051667;28;20592;-58
2021/09/11 02:32:01;;;;;;;10.35;8.52;;;20.00;99.90;;;;;;5051244;28;20244;-58
2021/09/11 02:34:29;;;;;;;9.82;8.70;;;20.10;99.90;;;;;;5051106;28;20257;-58
2021/09/11 02:36:56;;;;;;;11.50;8.85;;;20.10;99.90;;;;;;5051434;28;20210;-59
2021/09/11 02:39:23;;;;;;;9.98;9.00;;;20.20;99.90;;;;;;5051018;28;20205;-58
2021/09/11 02:41:49;;;;;;;9.68;8.73;;;20.20;99.90;;;;;;5050889;28;20233;-58
2021/09/11 02:44:16;;;;;;;10.25;8.60;;;20.20;99.90;;;;;;5051040;28;20197;-58
2021/09/11 02:46:43;;;;;;;8.90;8.00;;;20.20;99.90;;;;;;5051067;28;20212;-58
2021/09/11 02:49:09;;;;;;;9.60;7.93;;;20.20;99.90;;;;;;5050847;28;20209;-58
2021/09/11 02:51:37;;;;;;;8.65;7.78;;;20.20;99.90;;;;;;5050685;28;20611;-59
2021/09/11 02:54:04;;;;;;;9.57;8.10;;;20.30;99.90;;;;;;5050222;28;20229;-59
2021/09/11 02:56:31;;;;;;;8.90;8.00;;;20.20;99.90;;;;;;5050854;28;20240;-58
2021/09/11 02:58:57;;;;;;;9.60;7.85;;;20.20;99.90;;;;;;5050635;28;20735;-58
2021/09/11 03:01:24;;;;;;;7.93;7.22;;;20.20;99.90;;;;;;5050896;28;20233;-58
2021/09/11 03:03:51;;;;;;;8.52;7.68;;;20.10;99.90;;;;;;5050669;28;20224;-58
2021/09/11 03:06:18;;;;;;;8.00;7.20;;;20.10;99.90;;;;;;5050851;28;20640;-59
2021/09/11 03:08:46;;;;;;;8.27;7.47;;;20.20;99.90;;;;;;5050603;28;20708;-58
2021/09/11 03:11:13;;;;;;;8.07;7.25;;;20.20;99.90;;;;;;5050974;28;20410;-58
2021/09/11 03:13:42;;;;;;;7.75;7.05;;;20.20;99.90;;;;;;5050718;28;20217;-58
2021/09/11 03:16:08;;;;;;;8.63;7.63;;;20.10;99.90;;;;;;5050875;28;20300;-57
2021/09/11 03:18:35;;;;;;;8.85;7.93;;;20.10;99.90;;;;;;5050469;28;20719;-58
2021/09/11 03:21:02;;;;;;;8.10;7.40;;;20.20;99.90;;;;;;5050480;28;20739;-58
2021/09/11 03:23:29;;;;;;;8.75;7.63;;;20.10;99.90;;;;;;5050472;28;20616;-58
2021/09/11 03:25:57;;;;;;;9.07;8.20;;;20.20;99.90;;;;;;5050836;28;20255;-58
2021/09/11 03:28:23;;;;;;;10.02;8.70;;;20.20;99.90;;;;;;5050777;28;20205;-59
2021/09/11 03:30:50;;;;;;;11.35;8.20;;;20.20;99.90;;;;;;5051100;28;20237;-57
2021/09/11 03:33:17;;;;;;;8.57;7.72;;;20.00;99.90;;;;;;5050507;28;20222;-58
2021/09/11 03:35:43;;;;;;;9.55;8.32;;;19.80;99.90;;;;;;5050344;28;20209;-57
2021/09/11 03:38:10;;;;;;;8.50;7.60;;;19.80;99.90;;;;;;5050770;28;20205;-58
2021/09/11 03:40:37;;;;;;;9.20;8.32;;;19.80;99.90;;;;;;5050804;28;20236;-57
2021/09/11 03:43:05;;;;;;;10.27;9.23;;;19.80;99.90;;;;;;5050665;28;20205;-58
2021/09/11 03:45:31;;;;;;;11.75;8.43;;;19.90;99.90;;;;;;5050653;28;20665;-58
2021/09/11 03:47:58;;;;;;;10.90;8.98;;;19.80;99.90;;;;;;5050495;28;20279;-59
2021/09/11 03:50:25;;;;;;;9.82;8.93;;;19.80;99.90;;;;;;5050199;28;20732;-58
2021/09/11 03:52:51;;;;;;;13.05;9.10;;;19.80;99.90;;;;;;5050378;28;20206;-58
2021/09/11 03:55:18;;;;;;;9.27;8.35;;;19.90;99.90;;;;;;5050240;28;20237;-59
2021/09/11 03:57:45;;;;;;;11.30;9.13;;;20.00;99.90;;;;;;5050499;28;20209;-59
2021/09/11 04:00:14;;;;;;;10.60;9.55;;;19.90;99.90;;;;;;5050341;28;20205;-58
2021/09/11 04:02:40;;;;;;;9.95;9.05;;;19.80;99.90;;;;;;5050131;28;20206;-58
2021/09/11 04:05:08;;;;;;;13.73;10.27;;;19.80;99.90;;;;;;5050551;28;20210;-57
2021/09/11 04:07:35;;;;;;;13.27;11.13;;;19.80;99.90;;;;;;5054551;28;20212;-59
2021/09/11 04:10:01;;;;;;;13.10;10.25;;;19.90;99.90;;;;;;5054035;28;20205;-60
2021/09/11 04:12:28;;;;;;;12.13;10.40;;;19.90;99.90;;;;;;5054216;28;20220;-59
2021/09/11 04:14:55;;;;;;;13.70;10.18;;;19.90;99.90;;;;;;5054268;28;20222;-59
2021/09/11 04:17:23;;;;;;;12.60;11.40;;;20.00;99.90;;;;;;5054509;28;20209;-58
2021/09/11 04:19:49;;;;;;;12.48;11.20;;;20.00;99.90;;;;;;5054305;28;20263;-59
2021/09/11 04:22:16;;;;;;;11.65;10.55;;;20.00;99.90;;;;;;5053999;28;20230;-60
2021/09/11 04:24:42;;;;;;;12.38;11.18;;;20.00;99.90;;;;;;5053626;28;20209;-60
2021/09/11 04:27:09;;;;;;;12.25;10.93;;;20.00;99.90;;;;;;5053606;28;20210;-59
2021/09/11 04:29:36;;;;;;;11.77;10.40;;;20.00;99.90;;;;;;5053559;28;20213;-60
2021/09/11 04:32:03;;;;;;;11.95;10.77;;;20.00;99.90;;;;;;5053214;28;20241;-59
2021/09/11 04:34:31;;;;;;;11.10;10.00;;;20.10;99.90;;;;;;5053618;28;20229;-59
2021/09/11 04:36:58;;;;;;;14.15;10.43;;;20.10;99.90;;;;;;5053596;28;20214;-59
2021/09/11 04:39:24;;;;;;;13.23;10.95;;;20.10;99.90;;;;;;5052831;28;20628;-57
2021/09/11 04:41:51;;;;;;;12.55;10.15;;;20.10;99.90;;;;;;5053241;28;20229;-61
2021/09/11 04:44:18;;;;;;;11.93;10.63;;;20.10;99.90;;;;;;5053212;28;20202;-59
2021/09/11 04:46:44;;;;;;;12.48;11.25;;;20.10;99.90;;;;;;5053197;28;20209;-60
2021/09/11 04:49:11;;;;;;;13.00;10.45;;;20.20;99.90;;;;;;5053361;28;20202;-59
2021/09/11 04:51:39;;;;;;;12.48;10.75;;;20.20;99.90;;;;;;5053164;28;20229;-57
2021/09/11 04:54:06;;;;;;;13.45;10.95;;;20.20;99.90;;;;;;5052887;28;20701;-57
2021/09/11 04:56:33;;;;;;;12.93;11.57;;;20.30;99.90;;;;;;5053283;28;20210;-58
2021/09/11 04:59:00;;;;;;;12.23;11.13;;;20.20;99.90;;;;;;5053038;28;20206;-58
2021/09/11 05:01:26;;;;;;;12.40;11.10;;;20.10;99.90;;;;;;5053570;28;20222;-58
2021/09/11 05:03:53;;;;;;;11.77;10.60;;;20.00;99.90;;;;;;5053138;28;20206;-58
2021/09/11 05:06:20;;;;;;;11.30;10.07;;;19.90;99.90;;;;;;5053378;28;20212;-59
2021/09/11 05:08:48;;;;;;;12.25;11.00;;;19.90;99.90;;;;;;5052910;28;20252;-59
2021/09/11 05:11:14;;;;;;;12.43;11.23;;;19.80;99.90;;;;;;5052831;28;20229;-58
2021/09/11 05:13:41;;;;;;;12.35;11.15;;;19.90;99.90;;;;;;5052702;28;20205;-57
2021/09/11 05:16:07;;;;;;;11.20;10.23;;;19.80;99.90;;;;;;5052951;28;20214;-58
2021/09/11 05:18:34;;;;;;;12.00;10.68;;;19.80;99.90;;;;;;5051674;28;20218;-59
2021/09/11 05:21:04;;;;;;;14.65;11.13;;;19.80;99.90;;;;;;5052854;28;20225;-58
2021/09/11 05:23:31;;;;;;;19.92;16.05;;;19.90;99.90;;;;;;5052900;28;20248;-58
2021/09/11 05:26:00;;;;;;;13.10;11.80;;;19.90;99.90;;;;;;5052593;28;20239;-59
2021/09/11 05:28:26;;;;;;;12.05;10.95;;;20.00;99.90;;;;;;5052294;28;20714;-59
2021/09/11 05:30:53;;;;;;;13.45;11.27;;;20.00;99.90;;;;;;5052327;28;20233;-59
2021/09/11 05:33:20;;;;;;;14.60;11.52;;;20.00;99.90;;;;;;5052403;28;20270;-58
2021/09/11 05:35:47;;;;;;;13.18;11.38;;;20.00;99.90;;;;;;5052237;28;20230;-58
2021/09/11 05:38:13;;;;;;;12.30;11.10;;;20.10;99.90;;;;;;5052149;28;20209;-57
2021/09/11 05:40:40;;;;;;;12.27;10.98;;;20.10;99.90;;;;;;5051937;28;20744;-59
2021/09/11 05:43:08;;;;;;;10.55;9.55;;;20.10;99.90;;;;;;5052356;28;20499;-58
2021/09/11 05:45:35;;;;;;;11.30;10.23;;;20.10;99.90;;;;;;5052171;28;20208;-58
2021/09/11 05:48:01;;;;;;;12.32;10.07;;;20.10;99.90;;;;;;5052121;28;20689;-58
2021/09/11 05:50:28;;;;;;;9.52;8.70;;;20.10;99.90;;;;;;5052024;28;20677;-57
2021/09/11 05:52:55;;;;;;;12.23;9.32;;;20.20;99.90;;;;;;5051837;28;20213;-58
2021/09/11 05:55:22;;;;;;;9.23;8.18;;;20.20;99.90;;;;;;5051722;28;20316;-58
2021/09/11 05:57:49;;;;;;;9.57;7.95;;;20.10;99.90;;;;;;5051779;28;20205;-59
2021/09/11 06:00:17;;;;;;;8.25;7.05;;;20.20;99.90;;;;;;5051475;28;20689;-58
2021/09/11 06:02:44;;;;;;;8.65;6.75;;;20.20;99.90;;;;;;5051800;28;20291;-57
2021/09/11 06:05:11;;;;;;;7.85;6.93;;;20.20;99.90;;;;;;5051575;28;20228;-59
2021/09/11 06:07:40;;;;;;;8.48;6.10;;;20.20;99.90;;;;;;5051671;28;20210;-59
2021/09/11 06:10:07;;;;;;;7.15;6.32;;;20.20;99.90;;;;;;5051499;28;20213;-58
2021/09/11 06:12:34;;;;;;;6.63;6.03;;;20.10;99.90;;;;;;5051839;28;20212;-59
2021/09/11 06:15:01;;;;;;;9.82;6.75;;;20.20;99.90;;;;;;5051344;28;20779;-57
2021/09/11 06:17:29;;;;;;;5.85;5.35;;;20.20;99.90;;;;;;5051674;28;20205;-58
2021/09/11 06:19:55;;;;;;;6.53;5.85;;;20.20;99.90;;;;;;5051425;28;20251;-57
2021/09/11 06:22:22;;;;;;;6.20;5.70;;;20.30;99.90;;;;;;5051332;28;20225;-57
2021/09/11 06:24:49;;;;;;;6.70;6.10;;;20.30;99.90;;;;;;5051454;28;20205;-59
2021/09/11 06:27:18;;;;;;;5.70;5.20;;;20.30;99.90;;;;;;5051617;28;20205;-57
2021/09/11 06:29:44;;;;;;;6.07;5.18;;;20.30;99.90;;;;;;5050825;28;20209;-57
2021/09/11 06:32:11;;;;;;;7.35;5.18;;;20.30;99.90;;;;;;5051042;28;20586;-58
2021/09/11 06:34:39;;;;;;;7.22;5.32;;;20.40;99.90;;;;;;5051086;28;20275;-56
2021/09/11 06:37:06;;;;;;;6.03;5.20;;;20.40;99.90;;;;;;5051166;28;20206;-57
2021/09/11 06:39:32;;;;;;;5.63;5.13;;;20.40;99.90;;;;;;5051533;28;20205;-58
2021/09/11 06:41:59;;;;;;;5.40;4.72;;;20.40;99.90;;;;;;5051269;28;20240;-59
2021/09/11 06:44:26;;;;;;;5.82;5.32;;;20.50;99.90;;;;;;5051372;28;20212;-57
2021/09/11 06:46:52;;;;;;;7.40;6.30;;;20.50;99.90;;;;;;5051368;28;20212;-57
2021/09/11 06:49:20;;;;;;;11.30;6.57;;;20.40;99.90;;;;;;5050869;28;20209;-57
2021/09/11 06:51:48;;;;;;;8.98;6.78;;;20.20;99.90;;;;;;5050743;28;20731;-57
2021/09/11 06:54:15;;;;;;;7.28;6.55;;;20.10;99.90;;;;;;5050693;28;20678;-57
2021/09/11 06:56:41;;;;;;;7.38;6.68;;;20.00;99.90;;;;;;5051034;28;20425;-57
2021/09/11 06:59:08;;;;;;;6.90;6.25;;;19.90;99.90;;;;;;5050713;28;20202;-59
2021/09/11 07:01:34;;;;;;;7.50;6.82;;;19.90;99.90;;;;;;5050727;28;20232;-55
2021/09/11 07:04:01;;;;;;;9.70;7.65;;;20.00;99.90;;;;;;5050885;28;20612;-56
2021/09/11 07:06:28;;;;;;;8.15;7.38;;;20.00;99.90;;;;;;5051054;28;20617;-57
2021/09/11 07:08:56;;;;;;;8.32;7.53;;;20.10;99.90;;;;;;5050995;28;20581;-56
2021/09/11 07:11:22;;;;;;;8.30;7.40;;;20.20;99.90;;;;;;5050451;28;20709;-57
2021/09/11 07:13:49;;;;;;;7.75;7.03;;;20.20;99.90;;;;;;5050560;28;20221;-55
2021/09/11 07:16:16;;;;;;;7.32;6.72;;;20.10;99.90;;;;;;5050524;28;20612;-57
2021/09/11 07:18:42;;;;;;;8.88;7.60;;;20.10;99.90;;;;;;5050446;28;20209;-55
2021/09/11 07:21:09;;;;;;;7.72;6.93;;;20.20;99.90;;;;;;5050834;28;20232;-55
2021/09/11 07:23:36;;;;;;;7.22;6.57;;;20.30;99.90;;;;;;5050693;28;20216;-55
2021/09/11 07:26:04;;;;;;;7.47;6.60;;;20.40;99.90;;;;;;5050820;28;20213;-56
2021/09/11 07:28:31;;;;;;;8.15;7.38;;;20.50;99.90;;;;;;5050653;28;20295;-55
2021/09/11 07:30:58;;;;;;;10.85;7.70;;;20.70;99.90;;;;;;5050631;28;20243;-55
2021/09/11 07:33:25;;;;;;;7.32;6.63;;;21.00;99.90;;;;;;5050756;28;20274;-54
2021/09/11 07:35:52;;;;;;;6.43;5.57;;;21.40;99.90;;;;;;5050735;28;20626;-55
2021/09/11 07:38:18;;;;;;;5.90;5.30;;;21.70;99.90;;;;;;5050896;28;20213;-56
2021/09/11 07:40:45;;;;;;;5.93;5.40;;;22.00;99.90;;;;;;5051864;28;20228;-55
2021/09/11 07:43:13;;;;;;;5.40;4.90;;;22.30;99.90;;;;;;5054686;28;20252;-58
2021/09/11 07:45:41;;;;;;;5.10;4.65;;;22.60;99.90;;;;;;5054316;28;20209;-56
2021/09/11 07:48:08;;;;;;;4.55;4.22;;;22.90;99.90;;;;;;5054418;28;20209;-55
2021/09/11 07:50:36;;;;;;;4.90;4.40;;;23.10;99.90;;;;;;5054542;28;20252;-57
2021/09/11 07:53:03;;;;;;;4.90;4.50;;;23.30;99.90;;;;;;5054404;28;20229;-58
2021/09/11 07:55:30;;;;;;;5.32;4.68;;;23.50;99.90;;;;;;5054070;28;20719;-55
2021/09/11 07:57:57;;;;;;;10.70;7.43;;;23.80;99.90;;;;;;5054276;28;20212;-55
2021/09/11 08:00:26;;;;;;;4.30;3.90;;;24.10;99.90;;;;;;5054021;28;20248;-56
2021/09/11 08:02:53;;;;;;;4.95;4.32;;;24.50;99.90;;;;;;5054511;28;20205;-58
2021/09/11 08:05:19;;;;;;;4.13;3.83;;;24.80;99.90;;;;;;5053922;28;20205;-56
2021/09/11 08:07:46;;;;;;;4.70;4.30;;;25.20;99.90;;;;;;5054485;28;20617;-56
2021/09/11 08:10:13;;;;;;;4.20;3.80;;;25.60;99.90;;;;;;5054319;28;20209;-57
2021/09/11 08:12:40;;;;;;;78.30;69.93;;;25.90;99.90;;;;;;5054022;28;20213;-55
2021/09/11 08:15:08;;;;;;;4.90;3.97;;;26.00;99.90;;;;;;5054243;28;20226;-56
2021/09/11 08:17:36;;;;;;;4.07;3.30;;;26.00;99.90;;;;;;5053937;28;20202;-56
2021/09/11 08:20:05;;;;;;;4.50;4.10;;;26.00;99.90;;;;;;5053868;28;20221;-58
2021/09/11 08:22:32;;;;;;;4.80;3.35;;;26.10;99.90;;;;;;5053855;28;20205;-57
2021/09/11 08:24:58;;;;;;;4.10;3.38;;;26.10;99.90;;;;;;5053735;28;20206;-56
2021/09/11 08:27:25;;;;;;;3.80;3.40;;;26.00;99.90;;;;;;5053795;28;20236;-57
2021/09/11 08:29:52;;;;;;;3.50;3.20;;;26.00;99.90;;;;;;5053624;28;20216;-58
2021/09/11 08:32:19;;;;;;;3.65;3.05;;;26.10;99.90;;;;;;5053512;28;20241;-57
2021/09/11 08:34:48;;;;;;;3.22;2.92;;;26.30;99.90;;;;;;5053293;28;20682;-58
2021/09/11 08:37:16;;;;;;;3.70;2.72;;;26.40;99.90;;;;;;5053403;28;20259;-58
2021/09/11 08:39:42;;;;;;;3.35;3.05;;;26.50;99.90;;;;;;5053257;28;20205;-58
2021/09/11 08:42:11;;;;;;;4.40;3.28;;;26.50;99.90;;;;;;5053576;28;20237;-56
2021/09/11 08:44:37;;;;;;;3.70;2.95;;;26.60;99.90;;;;;;5053015;28;20297;-59
2021/09/11 08:47:06;;;;;;;3.30;3.00;;;26.80;99.90;;;;;;5053195;28;20240;-56
2021/09/11 08:49:33;;;;;;;3.72;3.40;;;27.10;99.90;;;;;;5052998;28;20212;-57
2021/09/11 08:52:03;;;;;;;3.40;3.10;;;27.30;99.90;;;;;;5052601;28;20260;-57
2021/09/11 08:54:30;;;;;;;3.33;3.03;;;27.40;99.90;;;;;;5052940;28;20594;-58
2021/09/11 08:56:56;;;;;;;4.82;3.25;;;27.30;99.90;;;;;;5053153;28;20233;-57
2021/09/11 08:59:26;;;;;;;5.68;3.20;;;27.20;99.90;;;;;;5052999;28;20201;-57
2021/09/11 09:02:05;;;;;;;3.40;3.05;;;27.10;99.90;;;;;;5052947;28;20287;-56
2021/09/11 09:04:54;;;;;;;4.38;3.10;;;27.00;99.90;;;;;;5052702;28;20556;-57
2021/09/11 09:07:33;;;;;;;4.35;3.00;;;26.90;99.90;;;;;;5049628;28;20303;-56
2021/09/11 09:10:00;;;;;;;4.88;3.17;;;26.90;99.90;;;;;;5052490;28;20210;-58
2021/09/11 09:12:31;;;;;;;5.45;3.22;;;26.80;99.90;;;;;;5052569;28;20213;-57
2021/09/11 09:15:00;;;;;;;3.80;2.90;;;26.80;99.90;;;;;;5052276;28;20206;-58
2021/09/11 09:17:42;;;;;;;3.28;2.97;;;26.80;99.90;;;;;;5052575;28;20673;-55
2021/09/11 09:20:18;;;;;;;5.53;3.40;;;27.00;99.90;;;;;;5052625;28;20201;-57
2021/09/11 09:22:48;;;;;;;4.32;3.42;;;27.20;99.90;;;;;;5052595;28;20201;-58
2021/09/11 09:25:27;;;;;;;3.78;3.42;;;27.50;99.90;;;;;;5052281;28;20692;-57
2021/09/11 09:27:57;;;;;;;4.43;3.20;;;27.90;99.90;;;;;;5052192;28;20205;-56
2021/09/11 09:33:02;;;;;;;3.15;2.50;;;28.50;99.90;;;;;;5115007;22;20240;-65
2021/09/11 09:35:29;;;;;;;2.72;2.50;;;28.80;99.90;;;;;;5092410;28;20289;-65
2021/09/11 09:38:00;;;;;;;4.03;2.78;;;28.90;99.90;;;;;;5092366;28;20204;-64
2021/09/11 09:40:42;;;;;;;2.70;2.33;;;29.20;99.90;;;;;;5092251;28;20204;-63
2021/09/11 09:43:10;;;;;;;3.75;2.47;;;29.20;99.90;;;;;;5072034;28;20204;-63
2021/09/11 09:45:38;;;;;;;4.97;2.47;;;29.10;99.90;;;;;;5072040;28;20205;-63
2021/09/11 09:48:08;;;;;;;2.95;2.60;;;28.70;99.90;;;;;;5071876;28;20812;-63
2021/09/11 09:50:36;;;;;;;3.70;2.47;;;28.20;99.90;;;;;;5071988;28;20204;-64
2021/09/11 09:53:05;;;;;;;3.20;2.90;;;27.90;99.90;;;;;;5071807;28;20205;-64
2021/09/11 09:55:31;;;;;;;3.85;2.60;;;28.10;99.90;;;;;;5071596;28;20627;-64
2021/09/11 09:57:58;;;;;;;5.30;2.80;;;27.80;99.90;;;;;;5071975;28;20208;-64
2021/09/11 10:00:27;;;;;;;3.03;2.60;;;27.80;99.90;;;;;;5071679;28;20213;-63
2021/09/11 10:02:53;;;;;;;2.78;2.50;;;27.90;99.90;;;;;;5071326;28;20220;-65
2021/09/11 10:05:23;;;;;;;5.55;2.92;;;28.00;99.90;;;;;;5071380;28;20394;-63
2021/09/11 10:08:02;;;;;;;4.03;2.80;;;28.10;99.90;;;;;;5071462;28;20204;-63
2021/09/11 10:10:32;;;;;;;3.35;2.55;;;28.40;99.90;;;;;;5071731;28;20208;-63
2021/09/11 10:13:10;;;;;;;4.43;2.83;;;28.60;99.90;;;;;;5071640;28;20575;-64
2021/09/11 10:15:48;;;;;;;3.53;2.78;;;28.50;99.90;;;;;;5071053;28;20228;-64
2021/09/11 10:18:40;;;;;;;2.50;2.30;;;28.50;99.90;;;;;;5071246;28;20212;-64
2021/09/11 10:21:19;;;;;;;3.83;2.53;;;28.60;99.90;;;;;;5071074;28;20224;-64
2021/09/11 10:24:22;;;;;;;2.85;2.28;;;28.60;99.90;;;;;;5071047;28;20204;-64
2021/09/11 10:26:52;;;;;;;3.30;2.50;;;28.80;99.90;;;;;;5071193;28;20668;-65
2021/09/11 10:29:53;;;;;;;3.70;3.00;;;28.80;99.90;;;;;;5071340;28;20250;-64
2021/09/11 10:32:26;;;;;;;4.88;2.50;;;28.60;99.90;;;;;;5070925;28;20236;-64
2021/09/11 10:34:55;;;;;;;2.90;2.60;;;28.40;99.90;;;;;;5071568;28;20205;-63
2021/09/11 10:37:36;;;;;;;2.72;2.38;;;27.90;99.90;;;;;;5071194;28;20225;-66
2021/09/11 10:40:20;;;;;;;3.28;2.42;;;27.60;99.90;;;;;;5071512;28;20414;-64
2021/09/11 10:43:31;;;;;;;2.50;2.30;;;27.80;99.90;;;;;;5071060;28;20232;-63
2021/09/11 10:46:17;;;;;;;2.35;2.15;;;28.00;99.90;;;;;;5071500;28;20201;-63
2021/09/11 10:48:50;;;;;;;3.70;2.22;;;28.20;99.90;;;;;;5071244;28;20288;-63
2021/09/11 10:51:23;;;;;;;3.72;2.33;;;28.50;99.90;;;;;;5071350;28;20271;-63
2021/09/11 10:54:12;;;;;;;3.38;2.53;;;28.50;99.90;;;;;;5071027;28;20288;-64
2021/09/11 10:56:45;;;;;;;5.55;3.28;;;28.60;99.90;;;;;;5071006;28;20708;-65
2021/09/11 10:59:34;;;;;;;3.30;2.40;;;28.60;99.90;;;;;;5070833;28;20616;-64
2021/09/11 11:02:08;;;;;;;2.58;2.38;;;28.60;99.90;;;;;;5071004;28;20221;-65
2021/09/11 11:04:37;;;;;;;2.85;2.65;;;28.80;99.90;;;;;;5070837;28;20647;-65
2021/09/11 11:07:05;;;;;;;3.47;2.35;;;28.80;99.90;;;;;;5070911;28;20208;-64
2021/09/11 11:09:37;;;;;;;3.20;2.28;;;28.90;99.90;;;;;;5071014;28;20211;-62
2021/09/11 11:12:05;;;;;;;2.63;2.20;;;28.50;99.90;;;;;;5070592;28;20311;-63
2021/09/11 11:14:32;;;;;;;4.35;2.40;;;28.10;99.90;;;;;;5071523;28;20216;-63
2021/09/11 11:16:59;;;;;;;3.70;2.40;;;27.70;99.90;;;;;;5074657;28;20227;-64
2021/09/11 11:19:30;;;;;;;9.90;7.80;;;27.60;99.90;;;;;;5074443;28;20201;-63
2021/09/11 11:22:00;;;;;;;4.03;3.22;;;27.50;99.90;;;;;;5074599;28;20227;-65
2021/09/11 11:24:29;;;;;;;3.55;2.58;;;27.80;99.90;;;;;;5074327;28;20201;-63
2021/09/11 11:26:58;;;;;;;3.28;2.15;;;28.10;99.90;;;;;;5074879;28;20240;-64
2021/09/11 11:29:26;;;;;;;5.35;2.50;;;28.30;99.90;;;;;;5074419;28;20561;-64
2021/09/11 11:31:53;;;;;;;2.92;2.45;;;28.20;99.90;;;;;;5074312;28;20620;-64
2021/09/11 11:34:19;;;;;;;3.47;3.17;;;28.20;99.90;;;;;;5074430;28;20209;-64
2021/09/11 11:36:53;;;;;;;3.67;3.00;;;28.10;99.90;;;;;;5074735;28;20297;-67
2021/09/11 11:39:26;;;;;;;4.32;3.40;;;27.90;99.90;;;;;;5074326;28;20806;-64
2021/09/11 11:42:02;;;;;;;2.90;2.58;;;28.00;99.90;;;;;;5074383;28;20621;-64
2021/09/11 11:44:29;;;;;;;3.80;3.00;;;28.20;99.90;;;;;;5074483;28;20204;-64
2021/09/11 11:47:03;;;;;;;4.65;3.10;;;28.00;99.90;;;;;;5074071;28;20605;-63
2021/09/11 11:49:40;;;;;;;5.07;3.42;;;27.70;99.90;;;;;;5073710;28;20295;-63
2021/09/11 11:52:10;;;;;;;5.13;3.53;;;27.50;99.90;;;;;;5074116;28;20227;-64
2021/09/11 11:54:38;;;;;;;5.55;3.38;;;27.00;99.90;;;;;;5073974;28;20213;-64
2021/09/11 11:57:11;;;;;;;4.07;3.53;;;26.60;99.90;;;;;;5073829;28;20704;-63
2021/09/11 11:59:38;;;;;;;3.92;2.83;;;26.50;99.90;;;;;;5073825;28;20216;-64
2021/09/11 12:02:22;;;;;;;3.15;2.75;;;26.60;99.90;;;;;;5073700;28;20732;-64
2021/09/11 12:04:50;;;;;;;3.95;2.75;;;26.80;99.90;;;;;;5073925;28;20209;-63
2021/09/11 12:07:28;;;;;;;3.15;2.70;;;27.20;99.90;;;;;;5074031;28;20287;-64
2021/09/11 12:10:00;;;;;;;2.53;2.33;;;27.40;99.90;;;;;;5073982;28;20208;-63
2021/09/11 12:12:27;;;;;;;2.80;2.50;;;27.70;99.90;;;;;;5073577;28;20267;-63
2021/09/11 12:14:54;;;;;;;3.90;3.28;;;27.80;99.90;;;;;;5073677;28;20208;-64
2021/09/11 12:17:21;;;;;;;4.43;3.15;;;27.90;99.90;;;;;;5073809;28;20236;-63
2021/09/11 12:19:47;;;;;;;4.45;3.40;;;27.90;99.90;;;;;;5073656;28;20204;-63
2021/09/11 12:22:19;;;;;;;4.03;2.60;;;27.70;99.90;;;;;;5073761;28;20221;-63
2021/09/11 12:24:47;;;;;;;3.63;2.53;;;27.50;99.90;;;;;;5073477;28;20216;-65
2021/09/11 12:27:16;;;;;;;4.45;3.30;;;27.30;99.90;;;;;;5072883;28;20269;-64
2021/09/11 12:29:43;;;;;;;2.80;2.60;;;27.10;99.90;;;;;;5073017;28;20751;-64
2021/09/11 12:32:18;;;;;;;4.50;2.60;;;26.90;99.90;;;;;;5073118;28;20720;-64
2021/09/11 12:34:46;;;;;;;3.97;2.33;;;26.60;99.90;;;;;;5073212;28;20212;-64
2021/09/11 12:37:13;;;;;;;5.13;2.40;;;26.20;99.90;;;;;;5073134;28;20312;-64
2021/09/11 12:39:41;;;;;;;4.70;2.60;;;25.80;99.90;;;;;;5073097;28;20245;-64
2021/09/11 12:42:12;;;;;;;10.70;3.20;;;25.20;99.90;;;;;;5073106;28;20224;-64
2021/09/11 12:44:40;;;;;;;6.68;3.03;;;24.70;99.90;;;;;;5072993;28;20213;-64
2021/09/11 12:47:08;;;;;;;6.63;2.22;;;24.50;99.90;;;;;;5073011;28;20208;-64
2021/09/11 12:49:38;;;;;;;17.42;11.23;;;24.20;99.90;;;;;;5072867;28;20204;-64
2021/09/11 12:52:06;;;;;;;3.50;2.53;;;23.90;99.90;;;;;;5072767;28;20604;-63
2021/09/11 12:54:33;;;;;;;3.47;1.80;;;23.80;99.90;;;;;;5072999;28;20216;-63